Time;durP1;ratioP1;P1;durP2;ratioP2;P2;SDS_P1;SDS_P2;PMS_P1;PMS_P2;Temp;Humidity;BMP_temperature;BMP_pressure;BME280_temperature;BME280_humidity;BME280_pressure;Samples;Min_cycle;Max_cycle;Signal;HPM_P1;HPM_P2
2023/05/21 00:01:58;;;;;;;3.17;1.50;;;;;;;15.01;47.00;101000.22;1709759;84;21522;-63
2023/05/21 00:04:28;;;;;;;4.15;1.30;;;;;;;14.99;47.05;100998.20;1709727;84;21019;-65
2023/05/21 00:06:59;;;;;;;7.60;1.50;;;;;;;14.97;47.11;100998.95;1709821;84;21420;-63
2023/05/21 00:09:30;;;;;;;4.25;1.40;;;;;;;14.97;47.00;100994.81;1688147;84;21105;-64
2023/05/21 00:11:59;;;;;;;4.03;1.40;;;;;;;14.94;46.99;101001.57;1709814;82;21034;-64
2023/05/21 00:14:29;;;;;;;2.20;1.40;;;;;;;14.93;46.88;101007.30;1681222;84;21074;-64
2023/05/21 00:17:01;;;;;;;3.85;1.37;;;;;;;14.89;46.89;101005.49;1709685;84;21094;-63
2023/05/21 00:19:34;;;;;;;2.85;1.35;;;;;;;14.85;47.00;100999.55;1709964;84;21556;-64
2023/05/21 00:22:04;;;;;;;6.70;1.52;;;;;;;14.84;46.90;101007.51;1710999;83;21546;-63
2023/05/21 00:24:34;;;;;;;5.60;1.60;;;;;;;14.85;46.86;101000.08;1703577;83;21078;-64
2023/05/21 00:27:04;;;;;;;6.80;2.37;;;;;;;14.83;46.79;101000.82;1710194;83;21451;-63
2023/05/21 00:29:34;;;;;;;4.95;1.62;;;;;;;14.82;46.88;101010.16;1680762;84;21054;-64
2023/05/21 00:32:06;;;;;;;4.53;1.50;;;;;;;14.79;46.92;101003.69;1668526;84;21046;-64
2023/05/21 00:34:36;;;;;;;2.08;1.40;;;;;;;14.75;47.06;101011.53;1709924;83;21062;-63
2023/05/21 00:37:05;;;;;;;3.05;1.50;;;;;;;14.75;47.11;101015.67;1709681;82;21034;-63
2023/05/21 00:39:35;;;;;;;5.42;1.40;;;;;;;14.76;47.12;101006.33;1709738;84;21055;-63
2023/05/21 00:42:05;;;;;;;8.80;1.70;;;;;;;14.75;47.13;101006.55;1709876;84;21082;-65
2023/05/21 00:44:34;;;;;;;3.05;1.40;;;;;;;14.76;47.14;101011.85;1709792;83;21078;-64
2023/05/21 00:47:05;;;;;;;3.60;1.50;;;;;;;14.77;47.13;100994.23;1710085;82;21035;-63
2023/05/21 00:49:35;;;;;;;4.85;1.60;;;;;;;14.73;47.16;101005.38;1668480;84;21035;-64
2023/05/21 00:52:06;;;;;;;5.97;1.30;;;;;;;14.70;47.22;101001.66;1709669;84;21050;-65
2023/05/21 00:54:37;;;;;;;5.25;1.37;;;;;;;14.74;47.19;101002.09;1709731;82;21003;-63
2023/05/21 00:57:06;;;;;;;2.92;1.35;;;;;;;14.70;47.25;101000.28;1709899;83;21484;-64
2023/05/21 00:59:36;;;;;;;3.25;1.35;;;;;;;14.68;47.28;101010.67;1709741;84;21058;-63
2023/05/21 01:02:08;;;;;;;2.40;1.50;;;;;;;14.66;47.43;101007.80;1709639;84;21007;-64
2023/05/21 01:04:37;;;;;;;4.33;1.50;;;;;;;14.66;47.43;101009.19;1709868;84;21097;-69
2023/05/21 01:07:08;;;;;;;4.33;1.67;;;;;;;14.61;47.54;101000.16;1709654;84;21098;-64
2023/05/21 01:09:39;;;;;;;4.22;1.37;;;;;;;14.61;47.58;101003.45;1710084;83;21058;-64
2023/05/21 01:12:08;;;;;;;4.50;1.50;;;;;;;14.59;47.55;101000.38;1709722;84;21446;-65
2023/05/21 01:14:38;;;;;;;4.65;1.62;;;;;;;14.56;47.67;100997.18;1709742;82;21074;-66
2023/05/21 01:17:09;;;;;;;5.55;1.60;;;;;;;14.51;47.66;100991.45;1709681;84;21055;-63
2023/05/21 01:19:40;;;;;;;2.62;1.42;;;;;;;14.45;47.76;100989.52;1709907;82;21551;-64
2023/05/21 01:22:09;;;;;;;3.95;1.70;;;;;;;14.41;47.89;100981.31;1668594;83;21097;-64
2023/05/21 01:24:40;;;;;;;5.05;1.75;;;;;;;14.36;47.99;100993.50;1709971;82;21410;-64
2023/05/21 01:27:09;;;;;;;3.10;1.60;;;;;;;14.27;48.24;100988.14;1709910;82;21536;-63
2023/05/21 01:29:38;;;;;;;3.35;1.70;;;;;;;14.23;48.38;100987.38;1709779;82;21031;-64
2023/05/21 01:32:35;;;;;;;2.52;1.67;;;;;;;14.23;48.56;100983.25;1709955;84;21035;-64
2023/05/21 01:35:18;;;;;;;3.70;1.80;;;;;;;14.22;48.64;100983.78;1668286;84;21105;-64
2023/05/21 01:38:13;;;;;;;4.87;1.57;;;;;;;14.21;48.75;100975.72;1709928;84;21052;-66
2023/05/21 01:41:02;;;;;;;3.50;1.50;;;;;;;14.24;48.79;100979.44;1709762;82;21070;-65
2023/05/21 01:43:34;;;;;;;4.70;1.60;;;;;;;14.24;48.86;100982.19;1703328;82;21426;-63
2023/05/21 01:46:04;;;;;;;3.25;1.55;;;;;;;14.22;48.99;100978.27;1667907;84;21035;-63
2023/05/21 01:48:34;;;;;;;7.58;2.05;;;;;;;14.20;49.09;100977.62;1680611;84;21050;-62
2023/05/21 01:51:05;;;;;;;5.80;1.50;;;;;;;14.22;49.15;100981.02;1709863;83;21508;-63
2023/05/21 01:53:37;;;;;;;5.00;2.00;;;;;;;14.24;49.20;100976.68;1709844;84;21000;-63
2023/05/21 01:56:06;;;;;;;4.53;1.80;;;;;;;14.20;49.36;100983.14;1709785;82;21418;-63
2023/05/21 01:58:37;;;;;;;3.08;1.22;;;;;;;14.16;49.58;100976.87;1710073;84;21053;-64
2023/05/21 02:01:07;;;;;;;4.62;1.80;;;;;;;14.12;49.82;100981.94;1710005;82;21035;-64
2023/05/21 02:03:37;;;;;;;4.75;1.72;;;;;;;14.10;50.01;100980.45;1709834;84;21019;-62
2023/05/21 02:06:06;;;;;;;4.12;1.80;;;;;;;14.05;50.31;100985.20;1710150;82;21067;-63
2023/05/21 02:08:37;;;;;;;6.15;1.75;;;;;;;13.95;50.62;100991.10;1709680;82;20994;-63
2023/05/21 02:11:06;;;;;;;4.20;1.80;;;;;;;13.92;50.96;100986.53;1703125;84;21076;-64
2023/05/21 02:13:40;;;;;;;3.67;1.67;;;;;;;13.87;51.05;100983.55;1668778;84;21039;-63
2023/05/21 02:16:10;;;;;;;10.58;1.92;;;;;;;13.82;51.20;100989.66;1679744;84;21019;-63
2023/05/21 02:18:38;;;;;;;4.33;1.82;;;;;;;13.80;51.25;100987.64;1709660;82;21062;-64
2023/05/21 02:21:10;;;;;;;4.78;1.70;;;;;;;13.84;51.25;100992.22;1709814;82;20998;-65
2023/05/21 02:23:40;;;;;;;7.35;2.00;;;;;;;13.79;51.32;100982.34;1719351;82;21024;-64
2023/05/21 02:26:10;;;;;;;5.28;1.70;;;;;;;13.75;51.47;100987.41;1713906;82;21025;-64
2023/05/21 02:28:41;;;;;;;5.17;1.57;;;;;;;13.74;51.64;100993.12;1728199;82;21048;-64
2023/05/21 02:31:11;;;;;;;3.12;1.70;;;;;;;13.74;51.66;100993.12;1733698;83;21076;-63
2023/05/21 02:33:42;;;;;;;3.52;1.85;;;;;;;13.70;51.87;100995.95;1728443;81;21096;-64
2023/05/21 02:36:12;;;;;;;3.83;1.72;;;;;;;13.64;52.00;100998.44;1733414;83;21147;-64
2023/05/21 02:38:42;;;;;;;8.30;2.12;;;;;;;13.63;52.06;100993.98;1728758;82;21476;-63
2023/05/21 02:41:13;;;;;;;9.55;2.17;;;;;;;13.63;52.12;100993.13;1713845;83;21056;-64
2023/05/21 02:43:43;;;;;;;4.20;2.17;;;;;;;13.59;52.34;100994.06;1728506;82;21473;-63
2023/05/21 02:46:12;;;;;;;2.47;1.67;;;;;;;13.49;52.46;100991.36;1733498;83;21049;-63
2023/05/21 02:48:43;;;;;;;5.97;1.62;;;;;;;13.45;52.54;100992.28;1728492;81;21191;-64
2023/05/21 02:51:12;;;;;;;3.30;1.60;;;;;;;13.44;52.48;100994.72;1729825;83;21412;-63
2023/05/21 02:53:46;;;;;;;4.58;1.70;;;;;;;13.42;52.44;100991.31;1728453;82;21060;-64
2023/05/21 02:56:16;;;;;;;5.80;1.87;;;;;;;13.38;52.45;100993.30;1728484;83;21025;-64
2023/05/21 02:58:46;;;;;;;7.75;1.82;;;;;;;13.36;52.39;100991.27;1733584;83;20993;-64
2023/05/21 03:01:15;;;;;;;3.77;1.70;;;;;;;13.34;52.40;100990.09;1728713;82;20989;-63
2023/05/21 03:03:46;;;;;;;3.35;1.65;;;;;;;13.32;52.52;100991.67;1733787;83;21020;-64
2023/05/21 03:06:21;;;;;;;4.12;1.60;;;;;;;13.33;52.36;100991.15;1728787;82;21084;-64
2023/05/21 03:08:50;;;;;;;4.37;1.90;;;;;;;13.33;52.25;100989.77;1733597;83;21437;-64
2023/05/21 03:11:21;;;;;;;3.45;2.00;;;;;;;13.29;52.30;100998.11;1728510;82;21075;-63
2023/05/21 03:13:50;;;;;;;6.08;2.00;;;;;;;13.22;52.38;101000.81;1733573;83;21020;-64
2023/05/21 03:16:21;;;;;;;5.17;2.02;;;;;;;13.23;52.39;100993.41;1728697;82;21437;-64
2023/05/21 03:18:52;;;;;;;5.75;2.10;;;;;;;13.24;52.37;100999.23;1733114;83;21048;-64
2023/05/21 03:21:24;;;;;;;5.95;1.98;;;;;;;13.20;52.40;100998.78;1728224;82;21535;-64
2023/05/21 03:23:57;;;;;;;4.72;2.05;;;;;;;13.18;52.37;101008.30;1726357;83;21081;-63
2023/05/21 03:26:28;;;;;;;3.77;1.77;;;;;;;13.12;52.33;101015.94;1717616;83;21457;-64
2023/05/21 03:28:58;;;;;;;6.37;2.00;;;;;;;13.10;52.42;101013.39;1696375;83;21057;-63
2023/05/21 03:31:28;;;;;;;4.62;2.12;;;;;;;13.09;52.43;101014.96;1717703;83;21033;-64
2023/05/21 03:34:07;;;;;;;3.00;1.87;;;;;;;13.06;52.45;101010.70;1712842;83;21077;-63
2023/05/21 03:36:37;;;;;;;3.30;2.05;;;;;;;13.02;52.51;101016.28;1717879;83;21029;-63
2023/05/21 03:39:06;;;;;;;6.00;1.95;;;;;;;12.98;52.64;101014.42;1717661;83;21029;-63
2023/05/21 03:41:36;;;;;;;3.27;1.90;;;;;;;12.95;52.54;101015.34;1717592;83;21025;-63
2023/05/21 03:44:08;;;;;;;2.62;1.90;;;;;;;12.91;52.56;101016.79;1696854;83;21001;-64
2023/05/21 03:46:41;;;;;;;3.27;2.00;;;;;;;12.91;52.57;101012.14;1716673;83;21050;-64
2023/05/21 03:49:13;;;;;;;5.33;2.00;;;;;;;12.91;52.61;101008.02;1716904;83;21061;-63
2023/05/21 03:51:42;;;;;;;2.87;2.00;;;;;;;12.87;52.81;101012.73;1717676;83;21057;-63
2023/05/21 03:54:13;;;;;;;3.92;2.12;;;;;;;12.88;52.84;101011.68;1717778;83;21065;-64
2023/05/21 03:56:42;;;;;;;5.50;2.22;;;;;;;12.88;52.99;101011.68;1717941;83;21061;-64
2023/05/21 03:59:14;;;;;;;5.00;2.25;;;;;;;12.90;53.07;101013.19;1717803;83;21029;-64
2023/05/21 04:01:44;;;;;;;3.83;2.12;;;;;;;12.89;53.10;101010.11;1717805;83;21061;-63
2023/05/21 04:04:16;;;;;;;4.10;2.52;;;;;;;12.93;53.25;101016.06;1636882;87;21077;-62
2023/05/21 04:06:47;;;;;;;5.30;2.42;;;;;;;12.94;53.23;101013.12;1636666;88;21453;-63
2023/05/21 04:09:17;;;;;;;6.35;2.52;;;;;;;12.95;53.19;101012.06;1636555;88;21468;-64
2023/05/21 04:11:47;;;;;;;5.50;2.47;;;;;;;12.98;53.20;101013.05;1636504;88;21504;-63
2023/05/21 04:14:17;;;;;;;4.72;2.50;;;;;;;12.96;53.36;101015.67;1636579;88;21032;-64
2023/05/21 04:16:47;;;;;;;4.53;2.65;;;;;;;12.96;53.27;101015.67;1636463;88;21127;-64
2023/05/21 04:19:19;;;;;;;5.22;2.30;;;;;;;12.99;53.26;101012.00;1636763;88;21522;-62
2023/05/21 04:21:50;;;;;;;4.03;2.67;;;;;;;13.03;53.16;101012.48;1636539;88;21119;-64
2023/05/21 04:24:19;;;;;;;5.20;3.20;;;;;;;13.01;53.01;101011.83;1631897;87;21573;-64
2023/05/21 04:26:54;;;;;;;6.87;2.62;;;;;;;12.98;53.17;101009.45;1626403;88;21076;-64
2023/05/21 04:29:24;;;;;;;8.18;3.10;;;;;;;13.00;53.40;101015.11;1666892;83;21066;-63
2023/05/21 04:31:54;;;;;;;6.87;3.02;;;;;;;13.02;53.58;101014.91;1716774;82;21022;-64
2023/05/21 04:34:23;;;;;;;5.72;2.72;;;;;;;13.05;53.48;101008.16;1717136;82;21018;-64
2023/05/21 04:36:54;;;;;;;4.20;2.85;;;;;;;13.06;53.30;101003.83;1717193;83;21073;-64
2023/05/21 04:39:23;;;;;;;5.30;2.65;;;;;;;13.01;53.44;101007.18;1628407;87;21510;-64
2023/05/21 04:41:55;;;;;;;4.35;3.00;;;;;;;13.01;53.44;100998.08;1628434;88;21091;-63
2023/05/21 04:44:24;;;;;;;4.40;2.52;;;;;;;13.03;53.48;101004.23;1628603;88;21123;-64
2023/05/21 04:46:53;;;;;;;4.62;2.60;;;;;;;13.09;53.45;101001.20;1628316;88;21062;-64
2023/05/21 04:49:23;;;;;;;3.72;2.67;;;;;;;13.18;53.44;101002.27;1628668;88;21063;-64
2023/05/21 04:51:52;;;;;;;5.20;2.58;;;;;;;13.27;53.31;100998.83;1628453;88;21058;-63
2023/05/21 04:54:21;;;;;;;6.87;3.00;;;;;;;13.39;53.13;101001.35;1628707;88;21066;-64
2023/05/21 04:56:51;;;;;;;4.12;2.72;;;;;;;13.51;52.94;101001.11;1628492;88;21620;-63
2023/05/21 04:59:33;;;;;;;6.65;2.80;;;;;;;13.74;52.71;100997.25;1628499;88;21051;-64
2023/05/21 05:02:03;;;;;;;4.35;2.80;;;;;;;14.00;52.47;100996.52;1651042;86;21124;-64
2023/05/21 05:04:32;;;;;;;6.35;3.10;;;;;;;14.35;51.71;100995.93;1710022;81;21459;-64
2023/05/21 05:07:02;;;;;;;5.37;2.72;;;;;;;14.65;50.82;100988.17;1731797;82;21173;-63
2023/05/21 05:09:32;;;;;;;5.50;2.87;;;;;;;14.89;49.97;100989.78;1731849;82;21047;-64
2023/05/21 05:12:04;;;;;;;3.95;2.80;;;;;;;15.08;49.20;100982.59;1711212;82;21075;-63
2023/05/21 05:14:33;;;;;;;10.88;3.35;;;;;;;15.33;49.11;100986.93;1731675;82;21415;-63
2023/05/21 05:17:03;;;;;;;6.53;3.10;;;;;;;15.66;48.55;100983.31;1731144;83;21490;-63
2023/05/21 05:19:33;;;;;;;6.90;3.15;;;;;;;16.01;47.77;100992.11;1720021;82;21511;-64
2023/05/21 05:22:04;;;;;;;7.67;2.98;;;;;;;16.16;46.93;100985.23;1731587;83;21003;-63
2023/05/21 05:24:38;;;;;;;5.12;2.98;;;;;;;16.20;46.70;100984.80;1720412;82;21079;-62
2023/05/21 05:27:08;;;;;;;4.42;2.58;;;;;;;16.29;46.26;100987.12;1731656;83;21127;-64
2023/05/21 05:29:38;;;;;;;7.78;3.10;;;;;;;16.33;46.29;100980.61;1731753;82;21090;-63
2023/05/21 05:32:08;;;;;;;3.65;2.55;;;;;;;16.47;46.05;100987.22;1731700;82;21167;-63
2023/05/21 05:34:37;;;;;;;6.40;2.98;;;;;;;16.67;45.53;100986.28;1731968;82;21040;-68
2023/05/21 05:37:08;;;;;;;6.28;3.22;;;;;;;16.89;45.05;100980.67;1731753;82;21043;-63
2023/05/21 05:39:38;;;;;;;5.40;2.90;;;;;;;17.05;44.97;100984.84;1731811;82;21082;-63
2023/05/21 05:42:08;;;;;;;5.90;3.02;;;;;;;17.24;44.35;100986.58;1731191;82;21051;-65
2023/05/21 05:44:37;;;;;;;4.97;3.10;;;;;;;17.50;44.38;100990.16;1732331;82;21480;-63
2023/05/21 05:47:09;;;;;;;8.80;3.17;;;;;;;17.86;43.32;100985.24;1731690;83;21055;-62
2023/05/21 05:49:39;;;;;;;7.25;3.22;;;;;;;18.14;42.85;100982.75;1731711;82;21035;-63
2023/05/21 05:52:09;;;;;;;7.80;3.02;;;;;;;18.47;42.30;100974.00;1731488;83;21027;-64
2023/05/21 05:54:38;;;;;;;4.97;3.00;;;;;;;18.74;41.19;100984.73;1731490;83;21032;-66
2023/05/21 05:57:07;;;;;;;6.55;4.20;;;;;;;18.94;40.74;100975.58;1720418;82;21483;-64
2023/05/21 05:59:37;;;;;;;5.80;3.40;;;;;;;19.20;40.24;100971.50;1711070;83;21083;-64
2023/05/21 06:02:06;;;;;;;5.30;3.00;;;;;;;19.39;40.00;100975.00;1744080;82;21133;-63
2023/05/21 06:04:36;;;;;;;5.20;3.10;;;;;;;19.53;39.65;100976.52;1745425;82;21419;-64
2023/05/21 06:07:06;;;;;;;6.10;2.87;;;;;;;19.66;39.13;100966.53;1744907;82;21082;-62
2023/05/21 06:09:37;;;;;;;4.87;2.87;;;;;;;19.91;39.04;100965.69;1744880;82;21085;-63
2023/05/21 06:12:07;;;;;;;5.70;2.87;;;;;;;20.15;38.33;100965.62;1745104;82;21066;-63
2023/05/21 06:14:39;;;;;;;6.42;2.80;;;;;;;20.22;38.25;100968.59;1744662;82;21019;-65
2023/05/21 06:17:11;;;;;;;5.70;3.30;;;;;;;20.30;37.67;100973.47;1744811;81;21309;-64
2023/05/21 06:19:41;;;;;;;6.05;2.98;;;;;;;20.28;38.00;100968.69;1713845;82;21051;-63
2023/05/21 06:22:10;;;;;;;8.83;3.67;;;;;;;20.46;37.89;100965.19;1745205;82;21128;-64
2023/05/21 06:24:40;;;;;;;5.08;3.05;;;;;;;20.68;37.56;100965.86;1744840;82;21038;-63
2023/05/21 06:27:11;;;;;;;6.12;2.87;;;;;;;20.91;37.39;100977.45;1744916;82;21083;-65
2023/05/21 06:29:41;;;;;;;5.30;2.95;;;;;;;21.23;36.74;100968.83;1745454;82;21030;-63
2023/05/21 06:32:10;;;;;;;6.42;3.00;;;;;;;21.44;35.99;100964.41;1745083;82;21454;-64
2023/05/21 06:34:40;;;;;;;3.60;2.58;;;;;;;21.51;36.13;100965.95;1713624;82;21014;-65
2023/05/21 06:37:10;;;;;;;9.33;2.90;;;;;;;21.68;35.14;100960.88;1744923;82;21498;-64
2023/05/21 06:39:39;;;;;;;2.55;1.98;;;;;;;21.83;34.72;100952.72;1714290;82;21118;-63
2023/05/21 06:42:10;;;;;;;5.67;2.08;;;;;;;21.88;34.37;100961.70;1744833;82;21466;-64
2023/05/21 06:44:44;;;;;;;4.55;2.27;;;;;;;22.07;33.40;100947.75;1737279;82;21459;-63
2023/05/21 06:47:36;;;;;;;3.98;2.10;;;;;;;22.30;32.76;100949.45;1744614;82;21011;-63
2023/05/21 06:50:07;;;;;;;4.85;1.95;;;;;;;22.40;31.93;100946.21;1745019;82;21082;-62
2023/05/21 06:52:36;;;;;;;5.62;2.33;;;;;;;22.43;32.13;100940.10;1744914;82;21043;-63
2023/05/21 06:55:09;;;;;;;7.03;1.90;;;;;;;22.58;31.83;100941.36;1744967;82;21054;-64
2023/05/21 06:57:40;;;;;;;4.40;2.00;;;;;;;22.56;31.82;100943.58;1740815;81;21056;-63
2023/05/21 07:00:12;;;;;;;3.50;1.90;;;;;;;22.57;31.62;100934.93;1745120;81;21038;-64
2023/05/21 07:02:44;;;;;;;5.03;1.75;;;;;;;22.63;31.25;100927.45;1744824;82;21086;-62
2023/05/21 07:05:15;;;;;;;4.65;1.90;;;;;;;22.61;30.80;100931.06;1744953;81;21042;-63
2023/05/21 07:07:45;;;;;;;6.80;1.80;;;;;;;22.56;30.81;100926.81;1745075;82;21086;-63
2023/05/21 07:10:15;;;;;;;4.97;2.40;;;;;;;22.53;30.86;100931.53;1745144;81;21047;-63
2023/05/21 07:12:45;;;;;;;2.98;1.70;;;;;;;22.76;30.62;100925.09;1744831;82;21124;-64
2023/05/21 07:15:15;;;;;;;3.98;1.72;;;;;;;22.82;30.13;100937.74;1745044;82;21486;-65
2023/05/21 07:17:45;;;;;;;2.58;1.70;;;;;;;22.60;30.21;100922.39;1744876;82;21040;-64
2023/05/21 07:20:15;;;;;;;2.47;2.00;;;;;;;22.21;30.62;100942.09;1744880;82;21063;-64
2023/05/21 07:22:47;;;;;;;4.28;2.10;;;;;;;21.88;31.08;100927.67;1744808;82;21505;-64
2023/05/21 07:25:18;;;;;;;2.72;1.55;;;;;;;21.67;31.68;100920.98;1744806;82;21470;-64
2023/05/21 07:27:48;;;;;;;1.77;1.67;;;;;;;21.69;31.77;100924.36;1713725;82;21055;-64
2023/05/21 07:30:17;;;;;;;5.33;1.80;;;;;;;21.81;31.47;100924.23;1744916;82;21075;-64
2023/05/21 07:32:46;;;;;;;2.62;1.82;;;;;;;21.93;31.46;100906.81;1714367;82;21046;-64
2023/05/21 07:35:16;;;;;;;4.60;2.20;;;;;;;22.10;31.13;100913.73;1745167;82;21155;-63
2023/05/21 07:37:46;;;;;;;5.40;1.87;;;;;;;22.17;30.88;100908.83;1745053;82;21019;-65
2023/05/21 07:40:16;;;;;;;4.15;1.80;;;;;;;22.27;30.75;100909.48;1744869;82;21444;-64
2023/05/21 07:42:45;;;;;;;2.75;1.60;;;;;;;22.41;30.59;100910.20;1744721;82;21030;-64
2023/05/21 07:45:14;;;;;;;3.60;2.05;;;;;;;22.59;30.55;100895.01;1745072;82;21498;-63
2023/05/21 07:47:47;;;;;;;8.68;1.87;;;;;;;22.73;30.21;100903.23;1744821;82;21050;-64
2023/05/21 07:50:17;;;;;;;5.97;2.10;;;;;;;23.02;29.81;100901.02;1744876;82;21201;-65
2023/05/21 07:52:46;;;;;;;5.25;2.30;;;;;;;23.29;29.64;100890.30;1742060;82;21063;-67
2023/05/21 07:55:17;;;;;;;3.62;2.12;;;;;;;23.47;29.45;100896.02;1705665;82;21217;-66
2023/05/21 07:57:51;;;;;;;3.85;1.95;;;;;;;23.47;29.59;100886.23;1706899;82;21040;-64
2023/05/21 08:00:23;;;;;;;7.62;2.00;;;;;;;23.52;29.32;100894.66;1724792;83;21069;-69
2023/05/21 08:02:54;;;;;;;4.37;2.17;;;;;;;23.51;29.19;100899.96;1697780;83;21064;-68
2023/05/21 08:05:24;;;;;;;5.20;2.20;;;;;;;23.48;29.25;100894.35;1694073;85;21088;-69
2023/05/21 08:07:55;;;;;;;5.17;2.98;;;;;;;23.57;29.48;100894.71;1694667;84;21043;-67
2023/05/21 08:10:24;;;;;;;3.92;2.90;;;;;;;23.67;29.26;100898.40;1694675;83;21518;-70
2023/05/21 08:12:54;;;;;;;4.80;1.90;;;;;;;23.70;29.88;100899.25;1695993;83;21005;-66
2023/05/21 08:15:23;;;;;;;3.30;2.10;;;;;;;23.84;29.35;100900.15;1690513;83;21121;-70
2023/05/21 08:17:55;;;;;;;3.42;1.90;;;;;;;23.94;29.13;100902.43;1687212;84;21029;-70
2023/05/21 08:20:26;;;;;;;3.60;1.98;;;;;;;23.83;28.94;100906.86;1677511;84;21045;-69
2023/05/21 08:22:54;;;;;;;3.70;2.47;;;;;;;23.82;29.05;100892.59;1687093;85;21085;-69
2023/05/21 08:25:24;;;;;;;3.90;2.10;;;;;;;23.90;28.58;100887.86;1677361;85;21041;-71
2023/05/21 08:27:54;;;;;;;3.90;2.27;;;;;;;23.80;28.69;100891.46;1688197;84;21050;-69
2023/05/21 08:30:24;;;;;;;7.03;2.15;;;;;;;23.77;29.04;100905.16;1695149;83;21066;-69
2023/05/21 08:32:53;;;;;;;6.70;2.15;;;;;;;23.85;28.85;100893.44;1694483;83;21429;-70
2023/05/21 08:35:24;;;;;;;3.85;2.50;;;;;;;23.86;28.82;100890.36;1694392;84;21029;-70
2023/05/21 08:37:55;;;;;;;5.25;2.35;;;;;;;23.71;28.79;100881.35;1693549;84;21068;-69
2023/05/21 08:40:36;;;;;;;4.53;2.08;;;;;;;23.61;29.33;100879.06;1693406;84;21028;-69
2023/05/21 08:43:12;;;;;;;3.65;2.35;;;;;;;23.80;28.83;100880.82;1694540;83;21061;-69
2023/05/21 08:45:41;;;;;;;5.62;2.50;;;;;;;23.97;28.69;100875.84;1694686;84;21107;-72
2023/05/21 08:48:11;;;;;;;5.05;2.30;;;;;;;23.98;28.65;100888.17;1694990;83;21128;-71
2023/05/21 08:50:41;;;;;;;3.35;2.37;;;;;;;23.97;28.56;100874.45;1694685;83;21496;-70
2023/05/21 08:53:12;;;;;;;5.22;2.35;;;;;;;23.89;28.86;100874.98;1694103;83;21105;-69
2023/05/21 08:55:43;;;;;;;4.25;2.67;;;;;;;23.75;28.54;100871.84;1696255;83;21040;-64
2023/05/21 08:58:15;;;;;;;5.03;2.40;;;;;;;23.50;29.36;100865.55;1694748;84;21036;-69
2023/05/21 09:00:45;;;;;;;5.47;2.27;;;;;;;23.54;29.43;100874.24;1694674;82;21079;-69
2023/05/21 09:03:15;;;;;;;7.25;2.47;;;;;;;23.58;28.93;100858.07;1730597;82;21119;-69
2023/05/21 09:05:45;;;;;;;5.35;2.15;;;;;;;23.56;29.28;100862.25;1731183;82;21059;-70
2023/05/21 09:08:32;;;;;;;3.27;2.20;;;;;;;23.61;29.03;100858.92;1667072;85;21084;-68
2023/05/21 09:11:03;;;;;;;4.70;2.15;;;;;;;23.52;28.98;100852.69;1673799;85;21075;-69
2023/05/21 09:13:35;;;;;;;6.80;2.08;;;;;;;23.36;29.24;100859.58;1731473;83;21020;-69
2023/05/21 09:16:08;;;;;;;9.78;2.80;;;;;;;23.25;29.48;100857.84;1731277;82;21444;-68
2023/05/21 09:18:38;;;;;;;5.42;2.37;;;;;;;23.19;29.70;100856.67;1711115;83;21047;-68
2023/05/21 09:21:26;;;;;;;6.12;2.40;;;;;;;23.11;29.79;100867.81;1730763;81;21507;-69
2023/05/21 09:24:00;;;;;;;5.10;2.05;;;;;;;22.97;29.77;100849.27;1730650;82;21087;-69
2023/05/21 09:26:31;;;;;;;4.15;1.85;;;;;;;22.79;29.97;100844.08;1731194;82;21048;-68
2023/05/21 09:29:02;;;;;;;5.12;1.90;;;;;;;22.64;30.26;100847.56;1731061;83;21145;-72
2023/05/21 09:31:31;;;;;;;6.08;2.10;;;;;;;22.55;30.29;100856.70;1731191;82;21456;-70
2023/05/21 09:34:01;;;;;;;6.58;2.45;;;;;;;22.38;30.72;100859.63;1731508;81;21039;-70
2023/05/21 09:36:33;;;;;;;8.53;3.60;;;;;;;22.21;31.07;100852.75;1731218;82;21020;-70
2023/05/21 09:39:03;;;;;;;7.12;2.92;;;;;;;22.16;30.89;100861.63;1730991;83;21079;-70
2023/05/21 09:41:34;;;;;;;6.25;2.30;;;;;;;21.98;30.85;100854.40;1731447;82;21016;-69
2023/05/21 09:44:05;;;;;;;2.87;2.17;;;;;;;21.79;31.28;100849.17;1731477;81;21115;-70
2023/05/21 09:46:39;;;;;;;4.37;2.25;;;;;;;21.82;31.34;100843.06;1731317;83;21015;-70
2023/05/21 09:49:25;;;;;;;5.00;2.20;;;;;;;21.87;31.16;100831.13;1731165;82;21106;-71
2023/05/21 09:51:57;;;;;;;4.20;2.00;;;;;;;21.86;31.79;100836.97;1731350;82;21082;-69
2023/05/21 09:54:32;;;;;;;3.87;2.72;;;;;;;21.97;31.86;100827.05;1731462;82;21028;-69
2023/05/21 09:57:01;;;;;;;8.33;2.72;;;;;;;22.03;31.55;100832.16;1731325;83;21059;-69
2023/05/21 09:59:38;;;;;;;11.18;3.17;;;;;;;22.00;31.81;100824.28;1731183;81;21108;-69
2023/05/21 10:02:22;;;;;;;6.67;2.62;;;;;;;22.02;31.41;100825.70;1714460;82;21051;-70
2023/05/21 10:04:53;;;;;;;5.00;2.30;;;;;;;21.98;31.15;100822.31;1740209;82;21090;-70
2023/05/21 10:07:25;;;;;;;6.22;2.25;;;;;;;21.96;31.10;100813.36;1739913;81;21090;-70
2023/05/21 10:09:55;;;;;;;4.87;2.25;;;;;;;21.91;31.25;100822.52;1740075;81;21079;-70
2023/05/21 10:12:27;;;;;;;8.20;2.95;;;;;;;21.84;31.63;100819.94;1740410;82;21432;-69
2023/05/21 10:15:02;;;;;;;4.97;2.05;;;;;;;21.81;31.47;100823.25;1740007;81;21078;-69
2023/05/21 10:17:31;;;;;;;7.53;2.22;;;;;;;21.74;31.78;100812.00;1740160;82;21028;-69
2023/05/21 10:20:01;;;;;;;6.20;2.33;;;;;;;21.73;32.38;100815.89;1740075;82;21083;-68
2023/05/21 10:22:30;;;;;;;4.85;2.02;;;;;;;21.81;31.95;100807.91;1740055;82;21208;-71
2023/05/21 10:24:59;;;;;;;5.08;1.92;;;;;;;;;;1739981;82;21050;-72
2023/05/21 10:27:30;;;;;;;4.17;2.12;;;;;;;21.69;31.26;100802.19;1740182;82;21035;-70
2023/05/21 10:30:01;;;;;;;2.52;1.80;;;;;;;21.60;31.55;100799.02;1739998;82;21489;-70
2023/05/21 10:32:30;;;;;;;8.33;2.10;;;;;;;21.59;31.21;100818.25;1739971;82;21083;-69
2023/05/21 10:35:01;;;;;;;3.47;2.08;;;;;;;21.55;31.55;100815.69;1739852;82;21071;-72
2023/05/21 10:37:31;;;;;;;3.67;2.00;;;;;;;21.56;31.72;100803.98;1740027;82;21031;-68
2023/05/21 10:40:01;;;;;;;5.15;2.00;;;;;;;21.60;31.81;100812.12;1740157;81;21066;-70
2023/05/21 10:42:36;;;;;;;5.15;2.10;;;;;;;21.63;31.80;100808.26;1740262;82;21007;-71
2023/05/21 10:45:18;;;;;;;4.53;2.08;;;;;;;21.64;31.53;100803.52;1740292;82;21059;-71
2023/05/21 10:48:11;;;;;;;3.42;1.90;;;;;;;21.55;31.71;100811.50;1740030;81;21493;-70
2023/05/21 10:51:01;;;;;;;6.72;2.10;;;;;;;21.48;31.64;100809.47;1739895;82;21035;-71
2023/05/21 10:54:08;;;;;;;11.22;2.70;;;;;;;21.39;31.99;100810.44;1739921;82;21007;-71
2023/05/21 10:57:00;;;;;;;6.12;2.00;;;;;;;21.35;32.36;100805.64;1739818;81;21058;-71
2023/05/21 10:59:47;;;;;;;5.95;2.00;;;;;;;21.38;32.22;100819.06;1740154;81;21022;-69
2023/05/21 11:02:17;;;;;;;5.67;2.15;;;;;;;21.36;32.05;100815.14;1740139;82;21078;-71
2023/05/21 11:04:47;;;;;;;8.68;2.62;;;;;;;21.38;31.91;100801.78;1739887;82;21066;-69
2023/05/21 11:07:24;;;;;;;6.80;2.50;;;;;;;21.41;32.14;100811.03;1719731;82;21511;-71
2023/05/21 11:10:17;;;;;;;3.75;1.90;;;;;;;21.47;32.06;100809.17;1708859;82;21047;-70
2023/05/21 11:13:13;;;;;;;4.33;1.90;;;;;;;21.44;31.82;100814.69;1739835;82;21027;-70
2023/05/21 11:16:04;;;;;;;6.72;2.10;;;;;;;21.41;31.79;100806.00;1712793;82;21074;-69
2023/05/21 11:18:41;;;;;;;4.47;2.10;;;;;;;21.41;32.16;100815.76;1739920;81;21023;-70
2023/05/21 11:21:20;;;;;;;6.50;2.17;;;;;;;21.43;31.96;100807.42;1740021;82;21462;-73
2023/05/21 11:24:04;;;;;;;8.15;2.08;;;;;;;21.44;31.95;100809.11;1740233;82;21475;-72
2023/05/21 11:27:00;;;;;;;2.75;2.00;;;;;;;21.48;31.84;100798.31;1740003;82;21506;-70
2023/05/21 11:29:39;;;;;;;4.75;2.35;;;;;;;21.49;32.02;100805.58;1739946;81;21019;-71
2023/05/21 11:32:09;;;;;;;7.92;1.95;;;;;;;21.55;32.10;100826.84;1719959;82;21541;-71
2023/05/21 11:34:46;;;;;;;2.98;1.80;;;;;;;21.51;31.73;100814.52;1739816;81;21494;-71
2023/05/21 11:37:22;;;;;;;9.10;2.67;;;;;;;21.43;31.90;100805.19;1739858;82;21031;-71
2023/05/21 11:39:51;;;;;;;9.08;3.00;;;;;;;21.47;32.53;100808.62;1740091;82;21024;-72
2023/05/21 11:42:35;;;;;;;5.55;2.35;;;;;;;21.56;32.50;100808.16;1739958;81;21015;-70
2023/05/21 11:45:07;;;;;;;4.97;1.90;;;;;;;21.62;32.01;100809.36;1721033;82;21043;-70
2023/05/21 11:47:37;;;;;;;4.28;1.90;;;;;;;21.63;31.59;100812.98;1739862;81;21043;-65
2023/05/21 11:50:13;;;;;;;3.87;1.98;;;;;;;21.59;31.57;100809.87;1719452;82;21047;-67